Terminal Aerodrome Forecast
Issued by NWS Cleveland, OH

Home | Current Version | Previous Version | Graphics & Text | Print | Product List | Glossary On
Versions: 1 2 3 4 5 6 7 8 9 10 11 12 13 14
770
FTUS41 KCLE 191914 AAA
TAFCAK
TAF AMD
KCAK 191914Z 1919/2018 32012KT P6SM VCTS SCT040CB BKN120
      TEMPO 1919/1921 BKN040CB
     FM192200 31008KT P6SM SCT035 BKN200
     FM192300 32006KT P6SM FEW040 SCT250
     FM200200 00000KT P6SM FEW250=

USA.gov is the U.S. government's official web portal to all federal, state and local government web resources and services.